createdAt,value
2023-03-06T00:00:17.750Z,420.00
2023-03-06T00:01:17.750Z,421.00
2023-03-06T00:02:17.754Z,421.00
2023-03-06T00:03:17.726Z,421.00
2023-03-06T00:54:53.384Z,422.00
2023-03-06T00:55:54.354Z,422.00
2023-03-06T00:56:54.368Z,421.00
2023-03-06T00:57:54.330Z,419.00
2023-03-06T00:58:54.315Z,419.00
2023-03-06T00:59:54.309Z,415.00
2023-03-06T01:00:54.334Z,412.00
2023-03-06T01:01:54.452Z,410.00
2023-03-06T01:02:54.276Z,413.00
2023-03-06T01:03:54.270Z,415.00
2023-03-06T01:04:54.263Z,417.00
2023-03-06T01:05:54.252Z,418.00
2023-03-06T01:06:54.241Z,417.00
2023-03-06T01:07:54.229Z,418.00
2023-03-06T01:08:54.233Z,418.00
2023-03-06T01:09:54.218Z,417.00
2023-03-06T01:10:54.227Z,415.00
2023-03-06T01:11:54.199Z,415.00
2023-03-06T01:12:54.184Z,418.00
2023-03-06T01:13:54.174Z,419.00
2023-03-06T01:14:54.169Z,420.00
2023-03-06T01:15:54.159Z,423.00
2023-03-06T01:16:54.148Z,423.00
2023-03-06T01:17:54.148Z,427.00
2023-03-06T01:18:54.126Z,427.00
2023-03-06T01:19:54.124Z,426.00
2023-03-06T01:20:54.108Z,426.00
2023-03-06T01:21:54.096Z,428.00
2023-03-06T01:22:54.091Z,428.00
2023-03-06T01:23:54.081Z,429.00
2023-03-06T01:24:54.072Z,428.00
2023-03-06T01:25:54.069Z,427.00
2023-03-06T01:26:54.079Z,426.00
2023-03-06T01:27:54.051Z,426.00
2023-03-06T01:28:54.036Z,425.00
2023-03-06T01:29:54.020Z,423.00
2023-03-06T01:30:54.027Z,423.00
2023-03-06T01:31:54.103Z,423.00
2023-03-06T01:32:54.655Z,421.00
2023-03-06T01:33:53.993Z,419.00
2023-03-06T01:34:54.029Z,416.00
2023-03-06T01:35:54.035Z,415.00
2023-03-06T01:36:53.963Z,416.00
2023-03-06T01:37:53.963Z,417.00
2023-03-06T01:38:53.954Z,416.00
2023-03-06T01:39:53.953Z,417.00
2023-03-06T01:40:53.927Z,418.00
2023-03-06T01:41:53.925Z,417.00
2023-03-06T01:42:53.939Z,415.00
2023-03-06T01:43:53.899Z,414.00
2023-03-06T01:44:53.894Z,414.00
2023-03-06T01:45:53.959Z,418.00
2023-03-06T01:46:53.876Z,418.00
2023-03-06T01:47:53.863Z,419.00
2023-03-06T01:48:53.857Z,419.00
2023-03-06T01:49:53.845Z,421.00
2023-03-06T01:50:53.844Z,421.00
2023-03-06T01:51:53.826Z,418.00
2023-03-06T01:52:53.817Z,419.00
2023-03-06T01:53:53.815Z,419.00
2023-03-06T01:54:53.802Z,419.00
2023-03-06T01:55:53.799Z,419.00
2023-03-06T01:56:53.789Z,417.00
2023-03-06T01:57:53.770Z,417.00
2023-03-06T01:58:53.789Z,419.00
2023-03-06T01:59:53.754Z,419.00
2023-03-06T02:00:53.812Z,421.00
2023-03-06T02:01:53.748Z,421.00
2023-03-06T02:02:53.747Z,420.00
2023-03-06T02:03:53.722Z,417.00
2023-03-06T02:04:53.705Z,417.00
2023-03-06T02:05:53.705Z,418.00
2023-03-06T02:06:53.749Z,416.00
2023-03-06T02:07:53.683Z,416.00
2023-03-06T02:08:53.674Z,416.00
2023-03-06T02:09:53.668Z,415.00
2023-03-06T02:10:53.654Z,415.00
2023-03-06T02:11:53.651Z,415.00
2023-03-06T02:12:53.649Z,416.00
2023-03-06T02:13:53.669Z,413.00
2023-03-06T02:14:53.654Z,411.00
2023-03-06T02:15:53.609Z,415.00
2023-03-06T02:16:53.605Z,417.00
2023-03-06T02:17:53.593Z,416.00
2023-03-06T02:18:53.583Z,417.00
2023-03-06T02:19:53.574Z,414.00
2023-03-06T02:20:53.562Z,414.00
2023-03-06T02:21:53.691Z,413.00
2023-03-06T02:22:53.545Z,412.00
2023-03-06T02:23:53.540Z,411.00
2023-03-06T02:24:53.525Z,412.00
2023-03-06T02:25:53.521Z,411.00
2023-03-06T02:26:53.506Z,412.00
2023-03-06T02:27:53.503Z,413.00
2023-03-06T02:28:54.187Z,415.00
2023-03-06T02:29:53.485Z,414.00
2023-03-06T02:30:53.561Z,413.00
2023-03-06T02:31:53.464Z,414.00
2023-03-06T02:32:53.456Z,413.00
2023-03-06T02:33:53.444Z,412.00
2023-03-06T02:34:53.444Z,413.00
2023-03-06T02:35:53.482Z,414.00
2023-03-06T02:36:53.413Z,414.00
2023-03-06T02:37:53.412Z,415.00
2023-03-06T02:38:53.398Z,417.00
2023-03-06T02:39:53.392Z,416.00
2023-03-06T02:40:53.387Z,417.00
2023-03-06T02:42:53.393Z,416.00
2023-03-06T02:43:53.351Z,417.00
2023-03-06T02:44:53.705Z,415.00
2023-03-06T02:45:53.415Z,415.00
2023-03-06T02:46:53.359Z,417.00
2023-03-06T02:47:53.362Z,416.00
2023-03-06T02:48:53.303Z,416.00
2023-03-06T02:49:53.313Z,417.00
2023-03-06T02:50:53.296Z,415.00
2023-03-06T02:51:53.272Z,415.00
2023-03-06T02:52:53.282Z,415.00
2023-03-06T02:53:53.266Z,416.00
2023-03-06T02:54:53.251Z,417.00
2023-03-06T02:55:53.235Z,417.00
2023-03-06T02:56:53.244Z,417.00
2023-03-06T02:57:53.244Z,417.00
2023-03-06T02:58:53.209Z,418.00
2023-03-06T02:59:53.224Z,419.00
2023-03-06T03:00:53.203Z,417.00
2023-03-06T03:01:53.238Z,416.00
2023-03-06T03:02:53.213Z,417.00
2023-03-06T03:03:53.159Z,416.00
2023-03-06T03:04:53.246Z,416.00
2023-03-06T03:05:53.142Z,416.00
2023-03-06T03:06:53.136Z,415.00
2023-03-06T03:07:53.130Z,415.00
2023-03-06T03:08:53.135Z,416.00
2023-03-06T03:09:53.112Z,416.00
2023-03-06T03:10:53.137Z,418.00
2023-03-06T03:11:53.105Z,418.00
2023-03-06T03:12:53.090Z,419.00
2023-03-06T03:13:53.074Z,423.00
2023-03-06T03:14:53.062Z,423.00
2023-03-06T03:15:53.140Z,422.00
2023-03-06T03:16:53.043Z,423.00
2023-03-06T03:17:53.034Z,421.00
2023-03-06T03:18:53.074Z,419.00
2023-03-06T03:19:53.012Z,420.00
2023-03-06T03:20:53.008Z,422.00
2023-03-06T03:21:53.700Z,420.00
2023-03-06T03:22:53.003Z,416.00
2023-03-06T03:23:52.994Z,415.00
2023-03-06T03:24:53.101Z,414.00
2023-03-06T03:25:52.963Z,413.00
2023-03-06T03:26:52.961Z,412.00
2023-03-06T03:27:52.950Z,406.00
2023-03-06T03:28:52.941Z,402.00
2023-03-06T03:29:52.940Z,403.00
2023-03-06T03:30:53.050Z,405.00
2023-03-06T03:31:52.918Z,408.00
2023-03-06T03:32:52.901Z,408.00
2023-03-06T03:33:52.893Z,408.00
2023-03-06T03:34:52.905Z,407.00
2023-03-06T03:35:52.907Z,407.00
2023-03-06T03:36:52.865Z,405.00
2023-03-06T03:37:52.868Z,406.00
2023-03-06T03:38:52.850Z,407.00
2023-03-06T03:39:52.838Z,406.00
2023-03-06T03:40:52.826Z,406.00
2023-03-06T03:41:52.843Z,407.00
2023-03-06T03:42:52.813Z,408.00
2023-03-06T03:43:52.811Z,410.00
2023-03-06T03:44:52.810Z,408.00
2023-03-06T03:45:52.786Z,408.00
2023-03-06T03:46:52.776Z,407.00
2023-03-06T03:47:52.763Z,404.00
2023-03-06T03:48:52.761Z,404.00
2023-03-06T03:49:52.741Z,405.00
2023-03-06T03:50:52.761Z,408.00
2023-03-06T03:51:52.729Z,408.00
2023-03-06T03:52:52.723Z,411.00
2023-03-06T03:53:52.711Z,411.00
2023-03-06T03:54:52.695Z,412.00
2023-03-06T03:55:52.690Z,414.00
2023-03-06T03:56:52.681Z,415.00
2023-03-06T03:57:53.209Z,414.00
2023-03-06T03:58:52.659Z,414.00
2023-03-06T03:59:52.655Z,414.00
2023-03-06T04:00:52.646Z,413.00
2023-03-06T04:01:52.694Z,414.00
2023-03-06T04:02:52.629Z,412.00
2023-03-06T04:03:52.616Z,411.00
2023-03-06T04:04:52.673Z,413.00
2023-03-06T04:05:52.592Z,411.00
2023-03-06T04:06:52.609Z,410.00
2023-03-06T04:07:52.587Z,411.00
2023-03-06T04:08:52.561Z,412.00
2023-03-06T04:09:52.552Z,414.00
2023-03-06T04:10:52.555Z,412.00
2023-03-06T04:11:52.543Z,411.00
2023-03-06T04:12:52.543Z,410.00
2023-03-06T04:13:52.523Z,408.00
2023-03-06T04:14:52.568Z,409.00
2023-03-06T04:15:52.539Z,410.00
2023-03-06T04:16:52.507Z,411.00
2023-03-06T04:17:52.480Z,412.00
2023-03-06T04:18:52.484Z,413.00
2023-03-06T04:19:52.483Z,412.00
2023-03-06T04:20:52.454Z,412.00
2023-03-06T04:21:52.442Z,413.00
2023-03-06T04:22:52.460Z,410.00
2023-03-06T04:23:53.218Z,410.00
2023-03-06T04:24:52.420Z,411.00
2023-03-06T04:25:52.415Z,411.00
2023-03-06T04:26:52.399Z,410.00
2023-03-06T04:27:52.389Z,411.00
2023-03-06T04:28:52.398Z,410.00
2023-03-06T04:29:52.375Z,409.00
2023-03-06T04:30:52.367Z,408.00
2023-03-06T04:31:52.355Z,409.00
2023-03-06T04:32:52.347Z,412.00
2023-03-06T04:33:52.334Z,415.00
2023-03-06T04:34:52.330Z,417.00
2023-03-06T04:35:52.376Z,417.00
2023-03-06T04:36:52.311Z,418.00
2023-03-06T04:37:52.297Z,416.00
2023-03-06T04:38:52.383Z,417.00
2023-03-06T04:39:52.284Z,416.00
2023-03-06T04:40:52.274Z,417.00
2023-03-06T04:41:52.264Z,417.00
2023-03-06T04:42:52.252Z,419.00
2023-03-06T04:43:52.248Z,418.00
2023-03-06T04:44:52.241Z,418.00
2023-03-06T04:45:52.310Z,414.00
2023-03-06T04:46:52.225Z,414.00
2023-03-06T04:47:52.209Z,412.00
2023-03-06T04:48:52.217Z,411.00
2023-03-06T04:49:52.191Z,411.00
2023-03-06T04:50:52.188Z,412.00
2023-03-06T04:51:52.181Z,413.00
2023-03-06T04:52:52.172Z,413.00
2023-03-06T04:53:52.151Z,414.00
2023-03-06T04:54:52.265Z,413.00
2023-03-06T04:55:52.138Z,411.00
2023-03-06T04:56:52.127Z,412.00
2023-03-06T04:57:52.122Z,414.00
2023-03-06T04:58:52.126Z,415.00
2023-03-06T04:59:52.094Z,415.00
2023-03-06T05:00:52.099Z,415.00
2023-03-06T05:01:52.184Z,415.00
2023-03-06T05:02:52.087Z,415.00
2023-03-06T05:03:52.734Z,415.00
2023-03-06T05:04:52.053Z,415.00
2023-03-06T05:05:52.038Z,414.00
2023-03-06T05:06:52.036Z,411.00
2023-03-06T05:07:52.020Z,412.00
2023-03-06T05:08:52.012Z,414.00
2023-03-06T05:09:52.003Z,414.00
2023-03-06T05:10:52.018Z,412.00
2023-03-06T05:11:51.984Z,412.00
2023-03-06T05:12:51.991Z,411.00
2023-03-06T05:13:51.973Z,413.00
2023-03-06T05:14:51.951Z,412.00
2023-03-06T05:15:51.942Z,410.00
2023-03-06T05:16:51.937Z,411.00
2023-03-06T05:17:51.921Z,411.00
2023-03-06T05:18:51.928Z,412.00
2023-03-06T05:19:51.915Z,413.00
2023-03-06T05:20:51.908Z,414.00
2023-03-06T05:21:51.884Z,413.00
2023-03-06T05:22:51.871Z,412.00
2023-03-06T05:23:52.749Z,411.00
2023-03-06T05:24:51.862Z,409.00
2023-03-06T05:25:51.852Z,409.00
2023-03-06T05:26:51.898Z,412.00
2023-03-06T05:27:51.846Z,412.00
2023-03-06T05:28:51.829Z,412.00
2023-03-06T05:29:51.814Z,412.00
2023-03-06T05:30:51.813Z,411.00
2023-03-06T05:31:51.854Z,410.00
2023-03-06T05:32:51.842Z,409.00
2023-03-06T05:33:52.813Z,408.00
2023-03-06T05:34:51.798Z,407.00
2023-03-06T05:35:51.961Z,405.00
2023-03-06T05:36:51.756Z,406.00
2023-03-06T05:37:51.769Z,407.00
2023-03-06T05:38:51.736Z,409.00
2023-03-06T05:39:51.722Z,410.00
2023-03-06T05:40:51.721Z,410.00
2023-03-06T05:41:51.711Z,408.00
2023-03-06T05:42:51.734Z,410.00
2023-03-06T05:43:51.693Z,411.00
2023-03-06T05:44:51.718Z,413.00
2023-03-06T05:45:51.777Z,412.00
2023-03-06T05:46:51.669Z,413.00
2023-03-06T05:47:51.664Z,415.00
2023-03-06T05:48:51.651Z,416.00
2023-03-06T05:49:51.636Z,416.00
2023-03-06T05:50:51.631Z,418.00
2023-03-06T05:51:51.618Z,415.00
2023-03-06T05:52:52.252Z,415.00
2023-03-06T05:53:51.618Z,417.00
2023-03-06T05:54:51.616Z,416.00
2023-03-06T05:55:51.578Z,415.00
2023-03-06T05:56:51.575Z,413.00
2023-03-06T05:57:51.568Z,412.00
2023-03-06T05:58:51.587Z,411.00
2023-03-06T05:59:51.564Z,411.00
2023-03-06T06:00:51.530Z,411.00
2023-03-06T06:01:51.522Z,412.00
2023-03-06T06:02:51.527Z,413.00
2023-03-06T06:03:51.830Z,416.00
2023-03-06T06:04:51.498Z,417.00
2023-03-06T06:05:51.490Z,417.00
2023-03-06T06:06:51.473Z,415.00
2023-03-06T06:08:51.460Z,413.00
2023-03-06T06:09:51.454Z,414.00
2023-03-06T06:10:53.383Z,416.00
2023-03-06T06:11:51.433Z,416.00
2023-03-06T06:12:51.425Z,418.00
2023-03-06T06:13:51.415Z,418.00
2023-03-06T06:14:51.576Z,419.00
2023-03-06T06:15:51.417Z,419.00
2023-03-06T06:16:51.385Z,418.00
2023-03-06T06:17:51.376Z,414.00
2023-03-06T06:18:51.381Z,413.00
2023-03-06T06:19:51.365Z,414.00
2023-03-06T06:20:51.376Z,417.00
2023-03-06T06:21:51.334Z,421.00
2023-03-06T06:22:51.768Z,425.00
2023-03-06T06:23:51.318Z,429.00
2023-03-06T06:24:51.306Z,430.00
2023-03-06T06:25:51.309Z,433.00
2023-03-06T06:26:51.293Z,438.00
2023-03-06T06:27:51.286Z,441.00
2023-03-06T06:28:51.765Z,444.00
2023-03-06T06:29:51.325Z,445.00
2023-03-06T06:30:51.314Z,450.00
2023-03-06T06:31:51.261Z,457.00
2023-03-06T06:32:51.239Z,463.00
2023-03-06T06:33:51.238Z,467.00
2023-03-06T06:34:51.242Z,471.00
2023-03-06T06:35:51.262Z,475.00
2023-03-06T06:36:53.342Z,479.00
2023-03-06T06:37:51.190Z,481.00
2023-03-06T06:38:51.182Z,484.00
2023-03-06T06:39:51.190Z,486.00
2023-03-06T06:41:26.721Z,492.00
2023-03-06T06:42:05.578Z,495.00
2023-03-06T06:42:51.151Z,499.00
2023-03-06T06:43:51.281Z,504.00
2023-03-06T06:44:51.155Z,511.00
2023-03-06T06:45:51.541Z,515.00
2023-03-06T06:47:51.204Z,526.00
2023-03-06T06:48:51.113Z,531.00
2023-03-06T06:49:51.328Z,540.00
2023-03-06T06:50:51.074Z,557.00
2023-03-06T06:51:51.276Z,566.00
2023-03-06T06:52:51.065Z,578.00
2023-03-06T06:55:06.898Z,593.00
2023-03-06T06:55:51.057Z,604.00
2023-03-06T06:57:51.051Z,663.00
2023-03-06T06:58:51.016Z,672.00
2023-03-06T06:59:53.836Z,683.00
2023-03-06T07:00:51.136Z,690.00
2023-03-06T07:01:51.928Z,704.00
2023-03-06T07:02:50.988Z,755.00
2023-03-06T07:03:51.008Z,770.00
2023-03-06T07:05:03.009Z,784.00
2023-03-06T07:05:50.958Z,796.00
2023-03-06T07:06:51.285Z,804.00
2023-03-06T07:07:50.931Z,819.00
2023-03-06T07:08:50.910Z,833.00
2023-03-06T07:09:50.905Z,851.00
2023-03-06T07:10:50.962Z,859.00
2023-03-06T07:11:51.300Z,866.00
2023-03-06T07:12:50.866Z,881.00
2023-03-06T07:13:50.860Z,906.00
2023-03-06T07:14:50.855Z,919.00
2023-03-06T07:15:50.880Z,929.00
2023-03-06T07:16:51.283Z,938.00
2023-03-06T07:17:51.305Z,951.00
2023-03-06T07:18:50.848Z,961.00
2023-03-06T07:19:50.809Z,973.00
2023-03-06T07:20:51.289Z,987.00
2023-03-06T07:21:50.785Z,998.00
2023-03-06T07:22:51.957Z,1010.00
2023-03-06T07:23:50.767Z,1024.00
2023-03-06T07:24:50.760Z,1035.00
2023-03-06T07:25:50.804Z,1048.00
2023-03-06T07:26:50.734Z,1057.00
2023-03-06T07:27:53.758Z,1068.00
2023-03-06T07:28:52.937Z,1084.00
2023-03-06T07:29:50.715Z,1093.00
2023-03-06T07:30:50.792Z,1108.00
2023-03-06T07:31:50.697Z,1117.00
2023-03-06T07:32:50.685Z,1128.00
2023-03-06T07:33:50.749Z,1135.00
2023-03-06T07:34:50.703Z,1144.00
2023-03-06T07:35:50.816Z,1153.00
2023-03-06T07:36:50.663Z,1164.00
2023-03-06T07:37:50.795Z,1175.00
2023-03-06T07:38:50.670Z,1189.00
2023-03-06T07:39:50.797Z,1196.00
2023-03-06T07:40:50.613Z,1207.00
2023-03-06T07:41:50.604Z,1220.00
2023-03-06T07:42:50.637Z,1231.00
2023-03-06T07:43:50.582Z,1249.00
2023-03-06T07:44:50.897Z,1267.00
2023-03-06T07:45:50.572Z,1279.00
2023-03-06T07:46:50.660Z,1286.00
2023-03-06T07:47:50.818Z,1294.00
2023-03-06T07:48:51.178Z,1301.00
2023-03-06T07:49:51.790Z,1306.00
2023-03-06T07:50:50.609Z,1315.00
2023-03-06T07:51:50.510Z,1329.00
2023-03-06T07:52:50.510Z,1339.00
2023-03-06T07:53:50.620Z,1350.00
2023-03-06T07:54:51.320Z,1361.00
2023-03-06T07:55:50.489Z,1371.00
2023-03-06T07:56:50.466Z,1380.00
2023-03-06T07:57:50.831Z,1391.00
2023-03-06T07:58:50.475Z,1403.00
2023-03-06T07:59:50.452Z,1412.00
2023-03-06T08:00:50.821Z,1423.00
2023-03-06T08:01:50.468Z,1435.00
2023-03-06T08:02:50.826Z,1448.00
2023-03-06T08:03:50.558Z,1461.00
2023-03-06T08:04:50.391Z,1476.00
2023-03-06T08:05:50.412Z,1487.00
2023-03-06T08:07:50.816Z,1508.00
2023-03-06T08:08:50.360Z,1517.00
2023-03-06T08:09:50.378Z,1525.00
2023-03-06T08:10:50.383Z,1527.00
2023-03-06T08:11:50.336Z,1543.00
2023-03-06T08:12:50.856Z,1553.00
2023-03-06T08:13:50.322Z,1562.00
2023-03-06T08:14:50.329Z,1573.00
2023-03-06T08:15:50.360Z,1581.00
2023-03-06T08:16:50.339Z,1589.00
2023-03-06T08:17:50.304Z,1599.00
2023-03-06T08:18:50.301Z,1609.00
2023-03-06T08:19:50.274Z,1622.00
2023-03-06T08:20:50.273Z,1631.00
2023-03-06T08:22:50.367Z,1658.00
2023-03-06T08:23:50.253Z,1665.00
2023-03-06T08:24:50.226Z,1670.00
2023-03-06T08:25:50.377Z,1674.00
2023-03-06T08:26:50.219Z,1683.00
2023-03-06T08:27:50.206Z,1690.00
2023-03-06T08:28:50.351Z,1700.00
2023-03-06T08:29:50.189Z,1713.00
2023-03-06T08:30:50.176Z,1722.00
2023-03-06T08:31:50.222Z,1729.00
2023-03-06T08:32:50.338Z,1735.00
2023-03-06T08:33:50.157Z,1743.00
2023-03-06T08:34:50.142Z,1751.00
2023-03-06T08:35:50.207Z,1760.00
2023-03-06T08:36:50.160Z,1767.00
2023-03-06T08:37:50.328Z,1776.00
2023-03-06T08:38:50.096Z,1787.00
2023-03-06T08:39:50.105Z,1793.00
2023-03-06T08:40:50.316Z,1809.00
2023-03-06T08:41:51.054Z,1816.00
2023-03-06T08:42:50.041Z,1826.00
2023-03-06T08:43:50.313Z,1837.00
2023-03-06T08:44:50.027Z,1842.00
2023-03-06T08:45:50.043Z,1848.00
2023-03-06T08:46:50.347Z,1852.00
2023-03-06T08:47:49.997Z,1858.00
2023-03-06T08:48:50.848Z,1861.00
2023-03-06T08:49:50.321Z,1864.00
2023-03-06T08:50:53.214Z,1866.00
2023-03-06T08:51:49.960Z,1870.00
2023-03-06T08:52:50.859Z,1876.00
2023-03-06T08:53:53.538Z,1882.00
2023-03-06T08:54:49.933Z,1889.00
2023-03-06T08:55:49.949Z,1896.00
2023-03-06T08:56:53.106Z,1907.00
2023-03-06T08:57:49.913Z,1923.00
2023-03-06T08:58:50.337Z,1935.00
2023-03-06T08:59:49.884Z,1947.00
2023-03-06T09:00:49.991Z,1963.00
2023-03-06T09:01:49.867Z,1977.00
2023-03-06T09:02:49.871Z,1989.00
2023-03-06T09:03:50.320Z,1991.00
2023-03-06T09:05:49.847Z,2010.00
2023-03-06T09:06:49.825Z,2022.00
2023-03-06T09:07:49.821Z,2031.00
2023-03-06T09:08:49.821Z,2042.00
2023-03-06T09:09:49.839Z,2053.00
2023-03-06T09:10:49.855Z,2062.00
2023-03-06T09:11:49.905Z,2067.00
2023-03-06T09:12:52.071Z,2075.00
2023-03-06T09:13:49.768Z,2077.00
2023-03-06T09:14:49.766Z,2086.00
2023-03-06T09:15:49.753Z,2092.00
2023-03-06T09:16:49.810Z,2105.00
2023-03-06T09:17:49.795Z,2108.00
2023-03-06T09:18:49.827Z,2113.00
2023-03-06T09:19:49.721Z,2125.00
2023-03-06T09:20:49.713Z,2130.00
2023-03-06T09:22:49.693Z,2142.00
2023-03-06T09:23:49.832Z,2151.00
2023-03-06T09:24:49.706Z,2156.00
2023-03-06T09:25:49.853Z,2161.00
2023-03-06T09:26:51.581Z,2169.00
2023-03-06T09:27:58.319Z,2174.00
2023-03-06T09:28:49.640Z,2180.00
2023-03-06T09:29:49.830Z,2189.00
2023-03-06T09:30:49.633Z,2199.00
2023-03-06T09:31:49.643Z,2205.00
2023-03-06T09:32:49.835Z,2215.00
2023-03-06T09:33:49.626Z,2222.00
2023-03-06T09:34:49.610Z,2229.00
2023-03-06T09:36:56.719Z,2241.00
2023-03-06T09:37:49.576Z,2247.00
2023-03-06T09:38:49.561Z,2256.00
2023-03-06T09:39:49.836Z,2267.00
2023-03-06T09:40:49.546Z,2272.00
2023-03-06T09:41:49.909Z,2279.00
2023-03-06T09:42:49.538Z,2296.00
2023-03-06T09:43:49.534Z,2305.00
2023-03-06T09:44:49.860Z,2313.00
2023-03-06T09:46:49.878Z,2326.00
2023-03-06T09:47:49.483Z,2334.00
2023-03-06T09:48:49.493Z,2313.00
2023-03-06T09:49:49.843Z,2273.00
2023-03-06T09:50:49.490Z,2230.00
2023-03-06T09:51:50.333Z,1768.00
2023-03-06T09:52:49.443Z,1432.00
2023-03-06T09:53:49.855Z,1300.00
2023-03-06T09:54:49.454Z,1283.00
2023-03-06T09:55:49.423Z,1317.00
2023-03-06T09:56:49.836Z,1327.00
2023-03-06T09:57:51.157Z,1330.00
2023-03-06T09:59:49.374Z,1221.00
2023-03-06T10:00:49.363Z,1205.00
2023-03-06T10:02:49.489Z,1177.00
2023-03-06T10:03:49.333Z,1161.00
2023-03-06T10:04:49.445Z,1141.00
2023-03-06T10:06:49.319Z,1073.00
2023-03-06T10:07:49.303Z,1064.00
2023-03-06T10:08:49.304Z,1054.00
2023-03-06T10:09:49.341Z,1044.00
2023-03-06T10:10:49.271Z,1043.00
2023-03-06T10:11:49.619Z,1023.00
2023-03-06T10:12:49.343Z,1005.00
2023-03-06T10:13:49.892Z,944.00
2023-03-06T10:14:49.465Z,898.00
2023-03-06T10:15:49.275Z,916.00
2023-03-06T10:16:49.218Z,950.00
2023-03-06T10:17:49.436Z,945.00
2023-03-06T10:18:49.199Z,922.00
2023-03-06T10:19:49.190Z,851.00
2023-03-06T10:20:49.810Z,835.00
2023-03-06T10:21:49.187Z,834.00
2023-03-06T10:23:00.772Z,826.00
2023-03-06T10:23:49.179Z,819.00
2023-03-06T10:24:49.200Z,810.00
2023-03-06T10:26:49.300Z,800.00
2023-03-06T10:27:49.277Z,799.00
2023-03-06T10:28:49.133Z,800.00
2023-03-06T10:30:01.598Z,802.00
2023-03-06T10:30:49.457Z,804.00
2023-03-06T10:31:49.683Z,803.00
2023-03-06T10:32:49.680Z,797.00
2023-03-06T10:33:49.401Z,798.00
2023-03-06T10:34:49.090Z,810.00
2023-03-06T10:35:49.103Z,816.00
2023-03-06T10:37:49.053Z,822.00
2023-03-06T10:38:49.074Z,824.00
2023-03-06T10:39:49.111Z,827.00
2023-03-06T10:40:49.001Z,825.00
2023-03-06T10:41:49.001Z,828.00
2023-03-06T10:42:56.065Z,827.00
2023-03-06T10:43:48.968Z,824.00
2023-03-06T10:44:49.010Z,820.00
2023-03-06T10:45:49.865Z,820.00
2023-03-06T10:46:49.126Z,823.00
2023-03-06T10:48:49.463Z,841.00
2023-03-06T10:49:48.913Z,837.00
2023-03-06T10:50:48.924Z,836.00
2023-03-06T10:51:48.984Z,848.00
2023-03-06T10:52:49.362Z,855.00
2023-03-06T10:53:49.393Z,862.00
2023-03-06T10:54:48.873Z,861.00
2023-03-06T10:55:48.859Z,855.00
2023-03-06T10:56:48.857Z,848.00
2023-03-06T10:57:48.864Z,845.00
2023-03-06T10:58:48.832Z,843.00
2023-03-06T10:59:48.863Z,849.00
2023-03-06T11:00:48.813Z,848.00
2023-03-06T11:01:48.998Z,846.00
2023-03-06T11:02:48.869Z,841.00
2023-03-06T11:03:48.866Z,842.00
2023-03-06T11:04:48.840Z,843.00
2023-03-06T11:05:48.783Z,843.00
2023-03-06T11:06:48.913Z,847.00
2023-03-06T11:07:48.751Z,846.00
2023-03-06T11:08:48.749Z,846.00
2023-03-06T11:09:48.726Z,842.00
2023-03-06T11:10:48.877Z,840.00
2023-03-06T11:11:48.711Z,838.00
2023-03-06T11:12:48.737Z,837.00
2023-03-06T11:13:48.689Z,835.00
2023-03-06T11:14:48.751Z,832.00
2023-03-06T11:15:48.967Z,834.00
2023-03-06T11:16:48.873Z,834.00
2023-03-06T11:17:48.675Z,839.00
2023-03-06T11:18:48.873Z,833.00
2023-03-06T11:19:48.634Z,824.00
2023-03-06T11:20:52.332Z,821.00
2023-03-06T11:21:48.628Z,822.00
2023-03-06T11:22:49.312Z,829.00
2023-03-06T11:23:49.441Z,755.00
2023-03-06T11:24:48.601Z,727.00
2023-03-06T11:25:48.578Z,711.00
2023-03-06T11:26:50.960Z,700.00
2023-03-06T11:27:48.558Z,691.00
2023-03-06T11:28:48.940Z,677.00
2023-03-06T11:29:48.560Z,662.00
2023-03-06T11:30:49.102Z,649.00
2023-03-06T11:31:48.868Z,640.00
2023-03-06T11:32:50.780Z,634.00
2023-03-06T11:33:49.128Z,627.00
2023-03-06T11:34:50.592Z,619.00
2023-03-06T11:35:48.530Z,623.00
2023-03-06T11:36:48.477Z,621.00
2023-03-06T11:37:48.881Z,616.00
2023-03-06T11:38:48.455Z,617.00
2023-03-06T11:39:48.537Z,608.00
2023-03-06T11:40:48.462Z,602.00
2023-03-06T11:41:48.432Z,602.00
2023-03-06T11:42:48.882Z,603.00
2023-03-06T11:43:48.419Z,601.00
2023-03-06T11:44:48.408Z,604.00
2023-03-06T11:45:48.395Z,611.00
2023-03-06T11:46:48.903Z,618.00
2023-03-06T11:47:48.376Z,621.00
2023-03-06T11:48:48.865Z,625.00
2023-03-06T11:49:48.801Z,628.00
2023-03-06T11:50:48.346Z,630.00
2023-03-06T11:51:48.377Z,632.00
2023-03-06T11:52:48.378Z,634.00
2023-03-06T11:53:48.323Z,638.00
2023-03-06T11:54:48.312Z,641.00
2023-03-06T11:55:48.390Z,646.00
2023-03-06T11:56:48.390Z,649.00
2023-03-06T11:57:48.297Z,652.00
2023-03-06T11:58:48.281Z,654.00
2023-03-06T11:59:48.264Z,657.00
2023-03-06T12:01:48.311Z,659.00
2023-03-06T12:02:48.238Z,659.00
2023-03-06T12:03:48.388Z,661.00
2023-03-06T12:04:48.223Z,663.00
2023-03-06T12:05:48.266Z,693.00
2023-03-06T12:06:48.203Z,715.00
2023-03-06T12:07:48.201Z,734.00
2023-03-06T12:08:48.393Z,740.00
2023-03-06T12:09:48.389Z,762.00
2023-03-06T12:10:51.725Z,784.00
2023-03-06T12:11:48.152Z,795.00
2023-03-06T12:12:48.149Z,801.00
2023-03-06T12:13:48.901Z,802.00
2023-03-06T12:14:48.367Z,807.00
2023-03-06T12:15:48.117Z,817.00
2023-03-06T12:16:48.158Z,828.00
2023-03-06T12:17:48.099Z,851.00
2023-03-06T12:18:48.388Z,879.00
2023-03-06T12:19:48.407Z,898.00
2023-03-06T12:20:48.400Z,895.00
2023-03-06T12:21:48.091Z,890.00
2023-03-06T12:22:58.166Z,867.00
2023-03-06T12:23:48.052Z,843.00
2023-03-06T12:24:48.032Z,836.00
2023-03-06T12:25:48.024Z,843.00
2023-03-06T12:26:48.017Z,858.00
2023-03-06T12:27:48.002Z,870.00
2023-03-06T12:28:47.997Z,877.00
2023-03-06T12:29:48.406Z,891.00
2023-03-06T12:30:47.980Z,902.00
2023-03-06T12:31:48.039Z,915.00
2023-03-06T12:32:48.009Z,932.00
2023-03-06T12:33:47.950Z,957.00
2023-03-06T12:34:48.404Z,979.00
2023-03-06T12:35:47.979Z,998.00
2023-03-06T12:36:47.928Z,1007.00
2023-03-06T12:37:48.469Z,1021.00
2023-03-06T12:38:47.910Z,1039.00
2023-03-06T12:39:47.892Z,1053.00
2023-03-06T12:40:47.991Z,1062.00
2023-03-06T12:41:47.881Z,1074.00
2023-03-06T12:42:47.876Z,1085.00
2023-03-06T12:43:47.857Z,1103.00
2023-03-06T12:44:48.034Z,1119.00
2023-03-06T12:45:47.851Z,1133.00
2023-03-06T12:46:47.828Z,1149.00
2023-03-06T12:47:47.827Z,1163.00
2023-03-06T12:48:48.422Z,1179.00
2023-03-06T12:49:48.520Z,1195.00
2023-03-06T12:50:47.908Z,1213.00
2023-03-06T12:51:47.793Z,1225.00
2023-03-06T12:52:47.906Z,1237.00
2023-03-06T12:53:47.803Z,1248.00
2023-03-06T12:54:47.766Z,1257.00
2023-03-06T12:55:47.950Z,1270.00
2023-03-06T12:56:47.749Z,1280.00
2023-03-06T12:57:47.734Z,1291.00
2023-03-06T12:58:47.732Z,1302.00
2023-03-06T12:59:47.735Z,1318.00
2023-03-06T13:00:52.418Z,1337.00
2023-03-06T13:01:47.762Z,1351.00
2023-03-06T13:02:48.422Z,1363.00
2023-03-06T13:03:47.688Z,1376.00
2023-03-06T13:04:47.675Z,1393.00
2023-03-06T13:05:47.666Z,1404.00
2023-03-06T13:06:50.835Z,1418.00
2023-03-06T13:07:47.913Z,1435.00
2023-03-06T13:08:47.877Z,1444.00
2023-03-06T13:09:47.670Z,1456.00
2023-03-06T13:10:48.422Z,1472.00
2023-03-06T13:11:47.625Z,1478.00
2023-03-06T13:12:47.913Z,1489.00
2023-03-06T13:13:47.618Z,1502.00
2023-03-06T13:14:54.082Z,1517.00
2023-03-06T13:15:47.588Z,1534.00
2023-03-06T13:16:47.604Z,1544.00
2023-03-06T13:17:47.594Z,1548.00
2023-03-06T13:18:47.923Z,1554.00
2023-03-06T13:19:47.550Z,1560.00
2023-03-06T13:20:47.546Z,1565.00
2023-03-06T13:21:47.918Z,1574.00
2023-03-06T13:22:47.543Z,1583.00
2023-03-06T13:23:47.533Z,1597.00
2023-03-06T13:24:48.335Z,1613.00
2023-03-06T13:25:47.583Z,1628.00
2023-03-06T13:26:47.922Z,1639.00
2023-03-06T13:27:47.480Z,1648.00
2023-03-06T13:28:47.484Z,1659.00
2023-03-06T13:29:47.917Z,1672.00